sensor_id;sensor_type;location;lat;lon;timestamp;P1;durP1;ratioP1;P2;durP2;ratioP2
33162;SDS011;29282;45.656;11.302;2023-03-08T00:01:10;9.20;;;5.82;;
33162;SDS011;29282;45.656;11.302;2023-03-08T00:03:39;8.40;;;6.20;;
33162;SDS011;29282;45.656;11.302;2023-03-08T00:06:06;7.85;;;5.50;;
33162;SDS011;29282;45.656;11.302;2023-03-08T00:08:32;8.50;;;6.35;;
33162;SDS011;29282;45.656;11.302;2023-03-08T00:10:58;8.90;;;6.25;;
33162;SDS011;29282;45.656;11.302;2023-03-08T00:13:23;7.30;;;5.28;;
33162;SDS011;29282;45.656;11.302;2023-03-08T00:15:49;9.48;;;5.95;;
33162;SDS011;29282;45.656;11.302;2023-03-08T00:18:14;9.38;;;5.75;;
33162;SDS011;29282;45.656;11.302;2023-03-08T00:20:40;9.15;;;6.03;;
33162;SDS011;29282;45.656;11.302;2023-03-08T00:23:07;8.93;;;5.78;;
33162;SDS011;29282;45.656;11.302;2023-03-08T00:25:34;7.90;;;6.30;;
33162;SDS011;29282;45.656;11.302;2023-03-08T00:27:59;10.57;;;6.43;;
33162;SDS011;29282;45.656;11.302;2023-03-08T00:30:25;8.68;;;6.10;;
33162;SDS011;29282;45.656;11.302;2023-03-08T00:32:50;8.32;;;6.53;;
33162;SDS011;29282;45.656;11.302;2023-03-08T00:35:16;10.20;;;6.50;;
33162;SDS011;29282;45.656;11.302;2023-03-08T00:37:44;9.32;;;6.35;;
33162;SDS011;29282;45.656;11.302;2023-03-08T00:40:09;7.63;;;6.13;;
33162;SDS011;29282;45.656;11.302;2023-03-08T00:42:35;7.90;;;6.05;;
33162;SDS011;29282;45.656;11.302;2023-03-08T00:45:01;8.75;;;6.18;;
33162;SDS011;29282;45.656;11.302;2023-03-08T00:47:26;10.95;;;6.20;;
33162;SDS011;29282;45.656;11.302;2023-03-08T00:49:52;9.80;;;6.45;;
33162;SDS011;29282;45.656;11.302;2023-03-08T00:52:17;8.60;;;5.70;;
33162;SDS011;29282;45.656;11.302;2023-03-08T00:54:43;7.82;;;6.22;;
33162;SDS011;29282;45.656;11.302;2023-03-08T00:57:08;6.00;;;5.40;;
33162;SDS011;29282;45.656;11.302;2023-03-08T00:59:33;10.82;;;6.32;;
33162;SDS011;29282;45.656;11.302;2023-03-08T01:01:59;7.55;;;6.00;;
33162;SDS011;29282;45.656;11.302;2023-03-08T01:04:25;9.02;;;5.95;;
33162;SDS011;29282;45.656;11.302;2023-03-08T01:06:50;8.02;;;5.85;;
33162;SDS011;29282;45.656;11.302;2023-03-08T01:09:16;8.25;;;5.93;;
33162;SDS011;29282;45.656;11.302;2023-03-08T01:11:41;8.00;;;6.18;;
33162;SDS011;29282;45.656;11.302;2023-03-08T01:14:08;9.40;;;5.90;;
33162;SDS011;29282;45.656;11.302;2023-03-08T01:16:33;9.27;;;6.25;;
33162;SDS011;29282;45.656;11.302;2023-03-08T01:18:59;8.93;;;5.88;;
33162;SDS011;29282;45.656;11.302;2023-03-08T01:21:26;10.23;;;6.05;;
33162;SDS011;29282;45.656;11.302;2023-03-08T01:23:53;6.65;;;5.45;;
33162;SDS011;29282;45.656;11.302;2023-03-08T01:26:20;8.23;;;5.95;;
33162;SDS011;29282;45.656;11.302;2023-03-08T01:28:47;9.02;;;6.10;;
33162;SDS011;29282;45.656;11.302;2023-03-08T01:31:15;8.30;;;5.85;;
33162;SDS011;29282;45.656;11.302;2023-03-08T01:33:42;7.70;;;6.22;;
33162;SDS011;29282;45.656;11.302;2023-03-08T01:36:09;7.00;;;5.95;;
33162;SDS011;29282;45.656;11.302;2023-03-08T01:38:36;9.32;;;6.28;;
33162;SDS011;29282;45.656;11.302;2023-03-08T01:41:03;6.72;;;5.47;;
33162;SDS011;29282;45.656;11.302;2023-03-08T01:43:30;6.80;;;5.70;;
33162;SDS011;29282;45.656;11.302;2023-03-08T01:46:04;7.60;;;5.88;;
33162;SDS011;29282;45.656;11.302;2023-03-08T01:48:34;8.48;;;5.80;;
33162;SDS011;29282;45.656;11.302;2023-03-08T01:51:05;7.60;;;5.40;;
33162;SDS011;29282;45.656;11.302;2023-03-08T01:53:33;8.98;;;6.00;;
33162;SDS011;29282;45.656;11.302;2023-03-08T01:56:00;8.07;;;5.53;;
33162;SDS011;29282;45.656;11.302;2023-03-08T01:58:26;9.07;;;6.20;;
33162;SDS011;29282;45.656;11.302;2023-03-08T02:00:51;8.25;;;5.93;;
33162;SDS011;29282;45.656;11.302;2023-03-08T02:03:17;7.95;;;5.47;;
33162;SDS011;29282;45.656;11.302;2023-03-08T02:05:42;7.43;;;5.70;;
33162;SDS011;29282;45.656;11.302;2023-03-08T02:08:08;7.70;;;5.75;;
33162;SDS011;29282;45.656;11.302;2023-03-08T02:10:34;8.18;;;5.72;;
33162;SDS011;29282;45.656;11.302;2023-03-08T02:13:02;8.07;;;6.13;;
33162;SDS011;29282;45.656;11.302;2023-03-08T02:15:30;7.57;;;6.00;;
33162;SDS011;29282;45.656;11.302;2023-03-08T02:17:55;8.52;;;5.70;;
33162;SDS011;29282;45.656;11.302;2023-03-08T02:22:53;6.93;;;5.80;;
33162;SDS011;29282;45.656;11.302;2023-03-08T02:25:22;7.43;;;5.40;;
33162;SDS011;29282;45.656;11.302;2023-03-08T02:27:50;7.50;;;5.53;;
33162;SDS011;29282;45.656;11.302;2023-03-08T02:30:29;7.68;;;5.35;;
33162;SDS011;29282;45.656;11.302;2023-03-08T02:32:57;8.25;;;5.70;;
33162;SDS011;29282;45.656;11.302;2023-03-08T02:35:23;8.23;;;5.63;;
33162;SDS011;29282;45.656;11.302;2023-03-08T02:37:48;8.48;;;5.68;;
33162;SDS011;29282;45.656;11.302;2023-03-08T02:40:14;7.60;;;5.65;;
33162;SDS011;29282;45.656;11.302;2023-03-08T02:42:39;7.28;;;5.60;;
33162;SDS011;29282;45.656;11.302;2023-03-08T02:45:05;7.70;;;5.65;;
33162;SDS011;29282;45.656;11.302;2023-03-08T02:47:31;7.18;;;5.85;;
33162;SDS011;29282;45.656;11.302;2023-03-08T02:49:57;6.55;;;5.50;;
33162;SDS011;29282;45.656;11.302;2023-03-08T02:52:23;7.95;;;5.90;;
33162;SDS011;29282;45.656;11.302;2023-03-08T02:54:48;6.38;;;5.43;;
33162;SDS011;29282;45.656;11.302;2023-03-08T02:57:14;7.85;;;5.78;;
33162;SDS011;29282;45.656;11.302;2023-03-08T02:59:39;6.10;;;5.07;;
33162;SDS011;29282;45.656;11.302;2023-03-08T03:02:04;7.13;;;5.65;;
33162;SDS011;29282;45.656;11.302;2023-03-08T03:04:31;7.07;;;5.78;;
33162;SDS011;29282;45.656;11.302;2023-03-08T03:06:57;8.25;;;6.05;;
33162;SDS011;29282;45.656;11.302;2023-03-08T03:09:24;7.18;;;5.78;;
33162;SDS011;29282;45.656;11.302;2023-03-08T03:11:49;6.15;;;5.13;;
33162;SDS011;29282;45.656;11.302;2023-03-08T03:14:15;6.88;;;5.15;;
33162;SDS011;29282;45.656;11.302;2023-03-08T03:16:41;6.22;;;5.40;;
33162;SDS011;29282;45.656;11.302;2023-03-08T03:19:06;7.53;;;5.70;;
33162;SDS011;29282;45.656;11.302;2023-03-08T03:21:32;7.07;;;5.47;;
33162;SDS011;29282;45.656;11.302;2023-03-08T03:23:58;10.02;;;5.60;;
33162;SDS011;29282;45.656;11.302;2023-03-08T03:26:23;6.68;;;4.85;;
33162;SDS011;29282;45.656;11.302;2023-03-08T03:28:50;7.10;;;5.28;;
33162;SDS011;29282;45.656;11.302;2023-03-08T03:31:17;5.45;;;4.80;;
33162;SDS011;29282;45.656;11.302;2023-03-08T03:33:44;6.75;;;5.43;;
33162;SDS011;29282;45.656;11.302;2023-03-08T03:36:12;6.72;;;5.30;;
33162;SDS011;29282;45.656;11.302;2023-03-08T03:38:38;7.25;;;5.47;;
33162;SDS011;29282;45.656;11.302;2023-03-08T03:41:10;6.15;;;5.22;;
33162;SDS011;29282;45.656;11.302;2023-03-08T03:43:37;6.03;;;4.97;;
33162;SDS011;29282;45.656;11.302;2023-03-08T03:46:05;6.82;;;5.47;;
33162;SDS011;29282;45.656;11.302;2023-03-08T03:48:35;7.20;;;5.50;;
33162;SDS011;29282;45.656;11.302;2023-03-08T03:51:05;6.78;;;4.95;;
33162;SDS011;29282;45.656;11.302;2023-03-08T03:53:32;6.15;;;5.20;;
33162;SDS011;29282;45.656;11.302;2023-03-08T03:58:37;8.27;;;5.63;;
33162;SDS011;29282;45.656;11.302;2023-03-08T04:01:10;9.80;;;6.38;;
33162;SDS011;29282;45.656;11.302;2023-03-08T04:03:38;6.65;;;5.28;;
33162;SDS011;29282;45.656;11.302;2023-03-08T04:08:33;7.70;;;5.32;;
33162;SDS011;29282;45.656;11.302;2023-03-08T04:11:00;8.13;;;5.22;;
33162;SDS011;29282;45.656;11.302;2023-03-08T04:13:26;9.00;;;5.88;;
33162;SDS011;29282;45.656;11.302;2023-03-08T04:15:51;7.78;;;5.57;;
33162;SDS011;29282;45.656;11.302;2023-03-08T04:18:17;5.95;;;5.05;;
33162;SDS011;29282;45.656;11.302;2023-03-08T04:20:45;8.02;;;5.30;;
33162;SDS011;29282;45.656;11.302;2023-03-08T04:23:11;7.72;;;5.70;;
33162;SDS011;29282;45.656;11.302;2023-03-08T04:25:37;6.95;;;5.47;;
33162;SDS011;29282;45.656;11.302;2023-03-08T04:28:02;7.28;;;5.53;;
33162;SDS011;29282;45.656;11.302;2023-03-08T04:30:28;7.55;;;5.60;;
33162;SDS011;29282;45.656;11.302;2023-03-08T04:32:54;6.55;;;5.15;;
33162;SDS011;29282;45.656;11.302;2023-03-08T04:35:20;6.78;;;5.22;;
33162;SDS011;29282;45.656;11.302;2023-03-08T04:37:46;7.10;;;5.00;;
33162;SDS011;29282;45.656;11.302;2023-03-08T04:40:12;6.35;;;5.25;;
33162;SDS011;29282;45.656;11.302;2023-03-08T04:42:38;8.13;;;5.45;;
33162;SDS011;29282;45.656;11.302;2023-03-08T04:45:05;8.98;;;5.63;;
33162;SDS011;29282;45.656;11.302;2023-03-08T04:47:31;6.63;;;5.35;;
33162;SDS011;29282;45.656;11.302;2023-03-08T04:49:57;6.93;;;5.47;;
33162;SDS011;29282;45.656;11.302;2023-03-08T04:52:23;6.93;;;5.53;;
33162;SDS011;29282;45.656;11.302;2023-03-08T04:54:48;7.35;;;5.55;;
33162;SDS011;29282;45.656;11.302;2023-03-08T04:57:14;10.90;;;6.07;;
33162;SDS011;29282;45.656;11.302;2023-03-08T04:59:41;9.23;;;5.78;;
33162;SDS011;29282;45.656;11.302;2023-03-08T05:02:07;8.38;;;5.55;;
33162;SDS011;29282;45.656;11.302;2023-03-08T05:04:33;10.50;;;6.43;;
33162;SDS011;29282;45.656;11.302;2023-03-08T05:06:58;11.70;;;6.22;;
33162;SDS011;29282;45.656;11.302;2023-03-08T05:09:24;8.40;;;6.15;;
33162;SDS011;29282;45.656;11.302;2023-03-08T05:11:49;8.75;;;6.20;;
33162;SDS011;29282;45.656;11.302;2023-03-08T05:14:15;8.68;;;6.30;;
33162;SDS011;29282;45.656;11.302;2023-03-08T05:16:40;8.93;;;6.03;;
33162;SDS011;29282;45.656;11.302;2023-03-08T05:19:06;13.48;;;6.40;;
33162;SDS011;29282;45.656;11.302;2023-03-08T05:21:31;10.10;;;5.90;;
33162;SDS011;29282;45.656;11.302;2023-03-08T05:23:59;11.73;;;6.15;;
33162;SDS011;29282;45.656;11.302;2023-03-08T05:26:25;7.35;;;5.75;;
33162;SDS011;29282;45.656;11.302;2023-03-08T05:28:50;12.90;;;6.20;;
33162;SDS011;29282;45.656;11.302;2023-03-08T05:31:17;11.73;;;6.47;;
33162;SDS011;29282;45.656;11.302;2023-03-08T05:33:44;10.65;;;5.82;;
33162;SDS011;29282;45.656;11.302;2023-03-08T05:36:12;10.65;;;6.35;;
33162;SDS011;29282;45.656;11.302;2023-03-08T05:38:38;11.30;;;5.80;;
33162;SDS011;29282;45.656;11.302;2023-03-08T05:41:05;10.73;;;5.65;;
33162;SDS011;29282;45.656;11.302;2023-03-08T05:43:32;9.57;;;5.60;;
33162;SDS011;29282;45.656;11.302;2023-03-08T05:46:11;10.02;;;5.60;;
33162;SDS011;29282;45.656;11.302;2023-03-08T05:48:42;9.25;;;5.10;;
33162;SDS011;29282;45.656;11.302;2023-03-08T05:51:09;8.57;;;5.85;;
33162;SDS011;29282;45.656;11.302;2023-03-08T05:53:37;8.80;;;5.50;;
33162;SDS011;29282;45.656;11.302;2023-03-08T05:56:13;9.07;;;5.30;;
33162;SDS011;29282;45.656;11.302;2023-03-08T05:58:40;7.40;;;5.45;;
33162;SDS011;29282;45.656;11.302;2023-03-08T06:01:19;10.98;;;5.55;;
33162;SDS011;29282;45.656;11.302;2023-03-08T06:03:48;8.30;;;5.53;;
33162;SDS011;29282;45.656;11.302;2023-03-08T06:06:22;6.55;;;5.20;;
33162;SDS011;29282;45.656;11.302;2023-03-08T06:08:51;7.88;;;5.38;;
33162;SDS011;29282;45.656;11.302;2023-03-08T06:11:18;6.70;;;5.60;;
33162;SDS011;29282;45.656;11.302;2023-03-08T06:13:43;8.05;;;5.30;;
33162;SDS011;29282;45.656;11.302;2023-03-08T06:16:09;8.70;;;5.28;;
33162;SDS011;29282;45.656;11.302;2023-03-08T06:18:36;7.78;;;5.10;;
33162;SDS011;29282;45.656;11.302;2023-03-08T06:23:30;6.32;;;5.15;;
33162;SDS011;29282;45.656;11.302;2023-03-08T06:25:57;7.75;;;5.25;;
33162;SDS011;29282;45.656;11.302;2023-03-08T06:28:23;9.20;;;5.53;;
33162;SDS011;29282;45.656;11.302;2023-03-08T06:30:49;8.95;;;5.43;;
33162;SDS011;29282;45.656;11.302;2023-03-08T06:33:15;7.93;;;5.78;;
33162;SDS011;29282;45.656;11.302;2023-03-08T06:35:41;7.38;;;5.25;;
33162;SDS011;29282;45.656;11.302;2023-03-08T06:38:07;5.82;;;4.97;;
33162;SDS011;29282;45.656;11.302;2023-03-08T06:40:33;7.72;;;5.35;;
33162;SDS011;29282;45.656;11.302;2023-03-08T06:42:58;7.93;;;5.60;;
33162;SDS011;29282;45.656;11.302;2023-03-08T06:45:25;8.25;;;5.28;;
33162;SDS011;29282;45.656;11.302;2023-03-08T06:47:51;9.15;;;5.40;;
33162;SDS011;29282;45.656;11.302;2023-03-08T06:50:16;10.40;;;4.93;;
33162;SDS011;29282;45.656;11.302;2023-03-08T06:52:42;7.05;;;5.20;;
33162;SDS011;29282;45.656;11.302;2023-03-08T06:55:08;9.25;;;5.40;;
33162;SDS011;29282;45.656;11.302;2023-03-08T06:57:34;10.65;;;5.95;;
33162;SDS011;29282;45.656;11.302;2023-03-08T06:59:59;8.77;;;5.72;;
33162;SDS011;29282;45.656;11.302;2023-03-08T07:02:25;8.38;;;5.65;;
33162;SDS011;29282;45.656;11.302;2023-03-08T07:04:51;9.57;;;5.18;;
33162;SDS011;29282;45.656;11.302;2023-03-08T07:07:16;9.05;;;5.43;;
33162;SDS011;29282;45.656;11.302;2023-03-08T07:09:42;6.70;;;5.20;;
33162;SDS011;29282;45.656;11.302;2023-03-08T07:12:07;8.07;;;5.75;;
33162;SDS011;29282;45.656;11.302;2023-03-08T07:14:33;8.90;;;5.38;;
33162;SDS011;29282;45.656;11.302;2023-03-08T07:16:58;9.55;;;5.85;;
33162;SDS011;29282;45.656;11.302;2023-03-08T07:19:24;11.85;;;5.65;;
33162;SDS011;29282;45.656;11.302;2023-03-08T07:21:49;10.32;;;5.45;;
33162;SDS011;29282;45.656;11.302;2023-03-08T07:24:14;10.60;;;5.75;;
33162;SDS011;29282;45.656;11.302;2023-03-08T07:26:40;7.45;;;5.35;;
33162;SDS011;29282;45.656;11.302;2023-03-08T07:29:05;15.50;;;5.43;;
33162;SDS011;29282;45.656;11.302;2023-03-08T07:31:32;9.63;;;5.70;;
33162;SDS011;29282;45.656;11.302;2023-03-08T07:34:00;10.02;;;5.20;;
33162;SDS011;29282;45.656;11.302;2023-03-08T07:36:29;14.63;;;5.25;;
33162;SDS011;29282;45.656;11.302;2023-03-08T07:38:54;7.45;;;5.22;;
33162;SDS011;29282;45.656;11.302;2023-03-08T07:41:20;12.27;;;6.18;;
33162;SDS011;29282;45.656;11.302;2023-03-08T07:43:46;7.18;;;5.40;;
33162;SDS011;29282;45.656;11.302;2023-03-08T07:46:12;10.02;;;5.20;;
33162;SDS011;29282;45.656;11.302;2023-03-08T07:48:38;9.07;;;5.60;;
33162;SDS011;29282;45.656;11.302;2023-03-08T07:51:05;12.00;;;5.90;;
33162;SDS011;29282;45.656;11.302;2023-03-08T07:53:33;7.28;;;5.03;;
33162;SDS011;29282;45.656;11.302;2023-03-08T07:55:59;10.20;;;5.32;;
33162;SDS011;29282;45.656;11.302;2023-03-08T07:58:26;9.73;;;5.53;;
33162;SDS011;29282;45.656;11.302;2023-03-08T08:00:52;9.80;;;5.47;;
33162;SDS011;29282;45.656;11.302;2023-03-08T08:03:18;6.72;;;4.90;;
33162;SDS011;29282;45.656;11.302;2023-03-08T08:05:44;8.23;;;5.07;;
33162;SDS011;29282;45.656;11.302;2023-03-08T08:08:09;8.57;;;5.57;;
33162;SDS011;29282;45.656;11.302;2023-03-08T08:10:38;8.27;;;5.18;;
33162;SDS011;29282;45.656;11.302;2023-03-08T08:13:06;8.60;;;5.47;;
33162;SDS011;29282;45.656;11.302;2023-03-08T08:15:32;9.93;;;5.50;;
33162;SDS011;29282;45.656;11.302;2023-03-08T08:17:58;8.73;;;5.38;;
33162;SDS011;29282;45.656;11.302;2023-03-08T08:20:24;8.35;;;5.47;;
33162;SDS011;29282;45.656;11.302;2023-03-08T08:22:51;9.52;;;5.43;;
33162;SDS011;29282;45.656;11.302;2023-03-08T08:25:18;8.10;;;5.28;;
33162;SDS011;29282;45.656;11.302;2023-03-08T08:27:44;10.32;;;5.05;;
33162;SDS011;29282;45.656;11.302;2023-03-08T08:30:11;13.45;;;5.70;;
33162;SDS011;29282;45.656;11.302;2023-03-08T08:32:38;8.98;;;5.40;;
33162;SDS011;29282;45.656;11.302;2023-03-08T08:35:03;9.02;;;5.32;;
33162;SDS011;29282;45.656;11.302;2023-03-08T08:37:30;7.32;;;5.20;;
33162;SDS011;29282;45.656;11.302;2023-03-08T08:39:56;8.57;;;5.85;;
33162;SDS011;29282;45.656;11.302;2023-03-08T08:42:22;8.68;;;5.70;;
33162;SDS011;29282;45.656;11.302;2023-03-08T08:44:48;7.95;;;4.82;;
33162;SDS011;29282;45.656;11.302;2023-03-08T08:47:14;8.98;;;5.38;;
33162;SDS011;29282;45.656;11.302;2023-03-08T08:49:39;10.23;;;5.95;;
33162;SDS011;29282;45.656;11.302;2023-03-08T08:52:05;7.60;;;5.22;;
33162;SDS011;29282;45.656;11.302;2023-03-08T08:54:31;8.43;;;5.15;;
33162;SDS011;29282;45.656;11.302;2023-03-08T08:56:58;9.68;;;5.60;;
33162;SDS011;29282;45.656;11.302;2023-03-08T08:59:24;7.35;;;5.05;;
33162;SDS011;29282;45.656;11.302;2023-03-08T09:01:49;7.28;;;4.93;;
33162;SDS011;29282;45.656;11.302;2023-03-08T09:04:15;5.70;;;4.97;;
33162;SDS011;29282;45.656;11.302;2023-03-08T09:06:41;10.25;;;4.93;;
33162;SDS011;29282;45.656;11.302;2023-03-08T09:09:06;9.63;;;5.28;;
33162;SDS011;29282;45.656;11.302;2023-03-08T09:11:32;8.38;;;5.18;;
33162;SDS011;29282;45.656;11.302;2023-03-08T09:13:58;8.45;;;4.75;;
33162;SDS011;29282;45.656;11.302;2023-03-08T09:16:25;6.53;;;4.65;;
33162;SDS011;29282;45.656;11.302;2023-03-08T09:18:51;6.28;;;4.88;;
33162;SDS011;29282;45.656;11.302;2023-03-08T09:21:18;8.90;;;5.18;;
33162;SDS011;29282;45.656;11.302;2023-03-08T09:23:43;6.93;;;5.30;;
33162;SDS011;29282;45.656;11.302;2023-03-08T09:26:10;8.30;;;5.10;;
33162;SDS011;29282;45.656;11.302;2023-03-08T09:28:35;8.73;;;5.60;;
33162;SDS011;29282;45.656;11.302;2023-03-08T09:31:05;6.93;;;4.88;;
33162;SDS011;29282;45.656;11.302;2023-03-08T09:33:42;7.72;;;5.68;;
33162;SDS011;29282;45.656;11.302;2023-03-08T09:36:09;6.95;;;5.30;;
33162;SDS011;29282;45.656;11.302;2023-03-08T09:38:35;5.57;;;4.78;;
33162;SDS011;29282;45.656;11.302;2023-03-08T09:46:13;8.30;;;5.28;;
33162;SDS011;29282;45.656;11.302;2023-03-08T09:48:46;7.05;;;5.22;;
33162;SDS011;29282;45.656;11.302;2023-03-08T09:51:15;7.03;;;4.97;;
33162;SDS011;29282;45.656;11.302;2023-03-08T09:53:48;6.43;;;5.05;;
33162;SDS011;29282;45.656;11.302;2023-03-08T09:59:12;5.27;;;4.70;;
33162;SDS011;29282;45.656;11.302;2023-03-08T10:01:49;5.38;;;4.70;;
33162;SDS011;29282;45.656;11.302;2023-03-08T10:09:34;5.93;;;5.07;;
33162;SDS011;29282;45.656;11.302;2023-03-08T10:15:15;7.10;;;5.00;;
33162;SDS011;29282;45.656;11.302;2023-03-08T10:17:54;6.15;;;4.40;;
33162;SDS011;29282;45.656;11.302;2023-03-08T10:20:37;6.38;;;5.03;;
33162;SDS011;29282;45.656;11.302;2023-03-08T10:23:18;7.43;;;5.10;;
33162;SDS011;29282;45.656;11.302;2023-03-08T10:25:46;6.72;;;4.70;;
33162;SDS011;29282;45.656;11.302;2023-03-08T10:30:44;6.38;;;4.93;;
33162;SDS011;29282;45.656;11.302;2023-03-08T10:33:13;6.30;;;4.53;;
33162;SDS011;29282;45.656;11.302;2023-03-08T10:35:55;6.47;;;4.80;;
33162;SDS011;29282;45.656;11.302;2023-03-08T10:38:21;8.20;;;4.80;;
33162;SDS011;29282;45.656;11.302;2023-03-08T10:40:47;6.55;;;4.68;;
33162;SDS011;29282;45.656;11.302;2023-03-08T10:43:35;7.13;;;4.65;;
33162;SDS011;29282;45.656;11.302;2023-03-08T10:48:44;5.82;;;4.47;;
33162;SDS011;29282;45.656;11.302;2023-03-08T10:51:15;5.95;;;4.57;;
33162;SDS011;29282;45.656;11.302;2023-03-08T10:57:00;5.60;;;4.95;;
33162;SDS011;29282;45.656;11.302;2023-03-08T10:59:17;6.25;;;4.70;;
33162;SDS011;29282;45.656;11.302;2023-03-08T11:01:49;7.82;;;5.20;;
33162;SDS011;29282;45.656;11.302;2023-03-08T11:04:21;7.60;;;5.03;;
33162;SDS011;29282;45.656;11.302;2023-03-08T11:06:48;6.43;;;4.90;;
33162;SDS011;29282;45.656;11.302;2023-03-08T11:09:32;6.45;;;4.95;;
33162;SDS011;29282;45.656;11.302;2023-03-08T11:11:58;6.85;;;4.90;;
33162;SDS011;29282;45.656;11.302;2023-03-08T11:14:24;6.05;;;4.57;;
33162;SDS011;29282;45.656;11.302;2023-03-08T11:48:45;5.38;;;4.63;;
33162;SDS011;29282;45.656;11.302;2023-03-08T11:52:11;6.88;;;4.60;;
33162;SDS011;29282;45.656;11.302;2023-03-08T11:57:08;6.32;;;4.47;;
33162;SDS011;29282;45.656;11.302;2023-03-08T11:59:55;7.63;;;4.97;;
33162;SDS011;29282;45.656;11.302;2023-03-08T12:02:37;5.40;;;4.70;;
33162;SDS011;29282;45.656;11.302;2023-03-08T12:05:11;6.10;;;4.85;;
33162;SDS011;29282;45.656;11.302;2023-03-08T12:07:42;8.73;;;4.90;;
33162;SDS011;29282;45.656;11.302;2023-03-08T12:15:36;5.78;;;4.30;;
33162;SDS011;29282;45.656;11.302;2023-03-08T12:20:42;5.43;;;4.43;;
33162;SDS011;29282;45.656;11.302;2023-03-08T12:26:29;6.28;;;4.35;;
33162;SDS011;29282;45.656;11.302;2023-03-08T12:32:08;5.65;;;4.70;;
33162;SDS011;29282;45.656;11.302;2023-03-08T12:34:36;5.72;;;4.72;;
33162;SDS011;29282;45.656;11.302;2023-03-08T12:37:16;6.70;;;4.88;;
33162;SDS011;29282;45.656;11.302;2023-03-08T12:39:57;5.63;;;4.53;;
33162;SDS011;29282;45.656;11.302;2023-03-08T12:45:04;5.32;;;4.50;;
33162;SDS011;29282;45.656;11.302;2023-03-08T12:47:54;5.20;;;4.68;;
33162;SDS011;29282;45.656;11.302;2023-03-08T12:50:22;5.97;;;4.45;;
33162;SDS011;29282;45.656;11.302;2023-03-08T12:52:48;5.78;;;4.72;;
33162;SDS011;29282;45.656;11.302;2023-03-08T12:55:18;5.25;;;4.75;;
33162;SDS011;29282;45.656;11.302;2023-03-08T12:57:50;5.55;;;4.40;;
33162;SDS011;29282;45.656;11.302;2023-03-08T13:00:30;9.38;;;5.65;;
33162;SDS011;29282;45.656;11.302;2023-03-08T13:05:32;5.63;;;4.30;;
33162;SDS011;29282;45.656;11.302;2023-03-08T13:11:09;6.55;;;4.60;;
33162;SDS011;29282;45.656;11.302;2023-03-08T13:16:04;5.93;;;4.93;;
33162;SDS011;29282;45.656;11.302;2023-03-08T13:18:47;8.18;;;5.03;;
33162;SDS011;29282;45.656;11.302;2023-03-08T13:24:01;7.20;;;5.20;;
33162;SDS011;29282;45.656;11.302;2023-03-08T13:29:28;6.28;;;4.95;;
33162;SDS011;29282;45.656;11.302;2023-03-08T13:31:56;5.25;;;4.50;;
33162;SDS011;29282;45.656;11.302;2023-03-08T13:34:23;6.00;;;4.85;;
33162;SDS011;29282;45.656;11.302;2023-03-08T13:36:49;7.53;;;4.97;;
33162;SDS011;29282;45.656;11.302;2023-03-08T13:39:17;5.45;;;4.45;;
33162;SDS011;29282;45.656;11.302;2023-03-08T13:41:45;6.03;;;4.68;;
33162;SDS011;29282;45.656;11.302;2023-03-08T13:44:24;7.15;;;4.57;;
33162;SDS011;29282;45.656;11.302;2023-03-08T13:46:51;8.38;;;5.20;;
33162;SDS011;29282;45.656;11.302;2023-03-08T13:49:26;11.60;;;6.00;;
33162;SDS011;29282;45.656;11.302;2023-03-08T13:51:58;9.10;;;5.10;;
33162;SDS011;29282;45.656;11.302;2023-03-08T13:57:00;7.43;;;4.70;;
33162;SDS011;29282;45.656;11.302;2023-03-08T13:59:27;10.60;;;5.10;;
33162;SDS011;29282;45.656;11.302;2023-03-08T14:01:54;8.18;;;4.70;;
33162;SDS011;29282;45.656;11.302;2023-03-08T14:04:29;6.68;;;4.70;;
33162;SDS011;29282;45.656;11.302;2023-03-08T14:06:55;8.30;;;5.03;;
33162;SDS011;29282;45.656;11.302;2023-03-08T14:09:23;8.40;;;4.95;;
33162;SDS011;29282;45.656;11.302;2023-03-08T14:11:54;9.05;;;4.63;;
33162;SDS011;29282;45.656;11.302;2023-03-08T14:14:27;6.88;;;4.68;;
33162;SDS011;29282;45.656;11.302;2023-03-08T14:16:56;8.70;;;5.07;;
33162;SDS011;29282;45.656;11.302;2023-03-08T14:19:24;9.20;;;4.90;;
33162;SDS011;29282;45.656;11.302;2023-03-08T14:24:25;12.23;;;5.43;;
33162;SDS011;29282;45.656;11.302;2023-03-08T14:27:02;6.75;;;4.57;;
33162;SDS011;29282;45.656;11.302;2023-03-08T14:29:33;5.35;;;4.07;;
33162;SDS011;29282;45.656;11.302;2023-03-08T14:36:55;5.82;;;4.43;;
33162;SDS011;29282;45.656;11.302;2023-03-08T14:39:24;9.13;;;5.07;;
33162;SDS011;29282;45.656;11.302;2023-03-08T14:41:50;5.53;;;4.38;;
33162;SDS011;29282;45.656;11.302;2023-03-08T14:44:19;7.72;;;4.75;;
33162;SDS011;29282;45.656;11.302;2023-03-08T14:46:47;6.07;;;4.45;;
33162;SDS011;29282;45.656;11.302;2023-03-08T14:49:21;5.60;;;4.40;;
33162;SDS011;29282;45.656;11.302;2023-03-08T14:51:47;8.50;;;4.93;;
33162;SDS011;29282;45.656;11.302;2023-03-08T14:59:26;7.80;;;4.45;;
33162;SDS011;29282;45.656;11.302;2023-03-08T15:01:52;8.88;;;4.90;;
33162;SDS011;29282;45.656;11.302;2023-03-08T15:04:18;7.13;;;5.22;;
33162;SDS011;29282;45.656;11.302;2023-03-08T15:06:46;8.35;;;4.22;;
33162;SDS011;29282;45.656;11.302;2023-03-08T15:09:15;7.32;;;4.97;;
33162;SDS011;29282;45.656;11.302;2023-03-08T15:11:43;6.38;;;4.20;;
33162;SDS011;29282;45.656;11.302;2023-03-08T15:14:10;7.75;;;4.57;;
33162;SDS011;29282;45.656;11.302;2023-03-08T15:16:36;5.30;;;4.22;;
33162;SDS011;29282;45.656;11.302;2023-03-08T15:19:02;5.85;;;4.65;;
33162;SDS011;29282;45.656;11.302;2023-03-08T15:21:28;6.25;;;4.70;;
33162;SDS011;29282;45.656;11.302;2023-03-08T15:23:54;8.15;;;4.45;;
33162;SDS011;29282;45.656;11.302;2023-03-08T15:26:24;7.20;;;4.15;;
33162;SDS011;29282;45.656;11.302;2023-03-08T15:28:52;5.47;;;4.15;;
33162;SDS011;29282;45.656;11.302;2023-03-08T15:31:18;6.30;;;4.47;;
33162;SDS011;29282;45.656;11.302;2023-03-08T15:33:43;5.30;;;4.72;;
33162;SDS011;29282;45.656;11.302;2023-03-08T15:36:11;5.90;;;4.63;;
33162;SDS011;29282;45.656;11.302;2023-03-08T15:38:38;6.57;;;4.70;;
33162;SDS011;29282;45.656;11.302;2023-03-08T15:41:04;5.03;;;4.45;;
33162;SDS011;29282;45.656;11.302;2023-03-08T15:43:29;5.85;;;4.55;;
33162;SDS011;29282;45.656;11.302;2023-03-08T15:45:57;7.03;;;4.45;;
33162;SDS011;29282;45.656;11.302;2023-03-08T15:48:23;6.50;;;4.32;;
33162;SDS011;29282;45.656;11.302;2023-03-08T15:50:49;6.25;;;4.10;;
33162;SDS011;29282;45.656;11.302;2023-03-08T15:53:14;5.07;;;4.43;;
33162;SDS011;29282;45.656;11.302;2023-03-08T15:55:40;6.00;;;4.40;;
33162;SDS011;29282;45.656;11.302;2023-03-08T15:58:05;6.05;;;4.57;;
33162;SDS011;29282;45.656;11.302;2023-03-08T16:00:31;5.28;;;4.43;;
33162;SDS011;29282;45.656;11.302;2023-03-08T16:02:57;6.50;;;4.03;;
33162;SDS011;29282;45.656;11.302;2023-03-08T16:05:24;6.20;;;4.38;;
33162;SDS011;29282;45.656;11.302;2023-03-08T16:07:57;6.18;;;4.55;;
33162;SDS011;29282;45.656;11.302;2023-03-08T16:10:26;4.90;;;4.18;;
33162;SDS011;29282;45.656;11.302;2023-03-08T16:12:53;6.32;;;4.60;;
33162;SDS011;29282;45.656;11.302;2023-03-08T16:15:19;5.78;;;4.78;;
33162;SDS011;29282;45.656;11.302;2023-03-08T16:17:44;6.18;;;5.15;;
33162;SDS011;29282;45.656;11.302;2023-03-08T16:20:10;6.03;;;4.65;;
33162;SDS011;29282;45.656;11.302;2023-03-08T16:22:37;6.22;;;4.38;;
33162;SDS011;29282;45.656;11.302;2023-03-08T16:25:03;11.77;;;5.10;;
33162;SDS011;29282;45.656;11.302;2023-03-08T16:27:31;18.23;;;5.10;;
33162;SDS011;29282;45.656;11.302;2023-03-08T16:29:58;10.45;;;4.50;;
33162;SDS011;29282;45.656;11.302;2023-03-08T16:32:24;6.13;;;4.72;;